AIRPORT ID: 6V4

DATE: 2021-12-09 ZULU TIME: 0.02 LOCAL TIME: 17.02


METAR K6V4 090002Z AUTO 24004KT 10SM 07/M06 A2941

ALTIMETER: A2941 Q996

DENSITY ALT: 3000 Ft

WIND DIRECT: 250

WIND SPEED: 4 Gust

WIND CONDITIONS:

VISIBILTY: 10SM 9999M

TEMPERATURE: 44 F 7 C

DEW POINT: 22 F -6 C

HUMID: 42%

LCL: 3,000-5,000 feet

RADIO CHECK: 0

ADVISARIES: 0

GREETINGS: 0

CONVERSATIONS: 0